createdAt,value
2023-01-17T00:02:06.417Z,10.77
2023-01-17T00:04:52.087Z,6.53
2023-01-17T00:07:41.978Z,6.20
2023-01-17T00:10:14.222Z,5.82
2023-01-17T00:12:48.124Z,7.63
2023-01-17T00:15:19.960Z,6.95
2023-01-17T00:17:49.452Z,3.97
2023-01-17T00:20:37.583Z,7.03
2023-01-17T00:23:27.625Z,7.05
2023-01-17T00:26:05.304Z,3.88
2023-01-17T00:28:35.815Z,6.88
2023-01-17T00:31:03.888Z,9.43
2023-01-17T00:33:31.128Z,6.25
2023-01-17T00:36:00.184Z,4.65
2023-01-17T00:38:31.542Z,4.95
2023-01-17T00:41:03.310Z,7.40
2023-01-17T00:43:50.003Z,6.70
2023-01-17T00:46:36.212Z,10.45
2023-01-17T00:49:22.757Z,9.75
2023-01-17T00:52:08.936Z,9.02
2023-01-17T00:54:56.461Z,11.98
2023-01-17T00:57:42.489Z,8.48
2023-01-17T01:00:30.291Z,7.18
2023-01-17T01:03:17.062Z,9.90
2023-01-17T01:06:03.183Z,9.15
2023-01-17T01:08:49.408Z,9.82
2023-01-17T01:11:39.517Z,10.98
2023-01-17T01:14:27.134Z,7.35
2023-01-17T01:17:13.253Z,5.78
2023-01-17T01:19:59.364Z,9.23
2023-01-17T01:22:45.153Z,9.73
2023-01-17T01:25:30.988Z,9.10
2023-01-17T01:28:24.676Z,15.52
2023-01-17T01:31:10.244Z,15.02
2023-01-17T01:33:38.788Z,10.20
2023-01-17T01:36:10.412Z,11.93
2023-01-17T01:38:38.976Z,10.20
2023-01-17T01:41:08.097Z,10.38
2023-01-17T01:43:46.643Z,11.77
2023-01-17T01:46:21.072Z,14.75
2023-01-17T01:48:54.421Z,15.05
2023-01-17T01:51:27.855Z,17.48
2023-01-17T01:54:04.116Z,16.08
2023-01-17T01:56:33.671Z,16.42
2023-01-17T01:59:05.331Z,14.55
2023-01-17T02:01:37.593Z,17.25
2023-01-17T02:04:10.242Z,16.30
2023-01-17T02:09:12.917Z,22.08
2023-01-17T02:11:42.341Z,19.77
2023-01-17T02:14:16.944Z,11.25
2023-01-17T02:17:08.344Z,16.65
2023-01-17T02:20:37.658Z,21.33
2023-01-17T02:23:50.337Z,19.30
2023-01-17T02:26:57.140Z,19.43
2023-01-17T02:30:28.704Z,15.05
2023-01-17T02:33:18.092Z,10.43
2023-01-17T02:35:57.629Z,13.15
2023-01-17T02:38:38.309Z,12.90
2023-01-17T02:41:12.364Z,11.20
2023-01-17T02:43:41.503Z,16.30
2023-01-17T02:46:11.534Z,10.73
2023-01-17T02:48:40.665Z,13.40
2023-01-17T02:51:51.182Z,14.50
2023-01-17T02:54:52.207Z,15.95
2023-01-17T02:57:46.561Z,10.90
2023-01-17T03:00:24.687Z,10.35
2023-01-17T03:03:06.988Z,14.00
2023-01-17T03:05:43.855Z,12.40
2023-01-17T03:08:13.553Z,13.73
2023-01-17T03:10:44.065Z,11.88
2023-01-17T03:13:12.349Z,18.30
2023-01-17T03:15:41.866Z,15.30
2023-01-17T03:18:16.042Z,12.57
2023-01-17T03:20:45.073Z,17.33
2023-01-17T03:23:13.669Z,15.43
2023-01-17T03:25:42.196Z,14.57
2023-01-17T03:28:11.918Z,15.40
2023-01-17T03:30:40.286Z,12.00
2023-01-17T03:33:09.690Z,15.05
2023-01-17T03:35:39.413Z,15.00
2023-01-17T03:38:07.945Z,16.60
2023-01-17T03:40:36.521Z,15.75
2023-01-17T03:43:04.825Z,17.23
2023-01-17T03:45:33.362Z,15.40
2023-01-17T03:48:01.944Z,12.85
2023-01-17T03:50:30.293Z,16.33
2023-01-17T03:53:00.609Z,13.93
2023-01-17T03:55:29.378Z,12.50
2023-01-17T03:57:57.660Z,13.65
2023-01-17T04:00:26.350Z,13.40
2023-01-17T04:02:55.413Z,13.98
2023-01-17T04:05:23.746Z,16.27
2023-01-17T04:07:52.801Z,14.43
2023-01-17T04:10:22.638Z,14.38
2023-01-17T04:12:51.010Z,17.27
2023-01-17T04:15:19.372Z,12.80
2023-01-17T04:17:47.892Z,14.07
2023-01-17T04:20:22.786Z,15.52
2023-01-17T04:22:51.399Z,11.57
2023-01-17T04:25:21.143Z,14.93
2023-01-17T04:27:49.728Z,16.40
2023-01-17T04:30:18.464Z,17.63
2023-01-17T04:32:47.293Z,15.00
2023-01-17T04:35:16.027Z,13.95
2023-01-17T04:37:44.384Z,14.27
2023-01-17T04:40:14.645Z,12.07
2023-01-17T04:42:46.381Z,17.45
2023-01-17T04:45:16.094Z,12.17
2023-01-17T04:47:44.686Z,16.10
2023-01-17T04:50:13.980Z,15.40
2023-01-17T04:52:42.583Z,15.27
2023-01-17T04:55:11.448Z,15.82
2023-01-17T04:57:39.920Z,14.65
2023-01-17T05:00:13.432Z,13.98
2023-01-17T05:02:42.979Z,13.80
2023-01-17T05:05:13.336Z,13.60
2023-01-17T05:07:41.902Z,17.20
2023-01-17T05:10:12.414Z,14.43
2023-01-17T05:12:40.987Z,15.68
2023-01-17T05:15:12.356Z,14.73
2023-01-17T05:17:40.719Z,14.10
2023-01-17T05:20:11.269Z,18.08
2023-01-17T05:22:39.871Z,15.23
2023-01-17T05:25:09.513Z,16.13
2023-01-17T05:27:38.105Z,18.10
2023-01-17T05:30:08.233Z,16.67
2023-01-17T05:32:38.425Z,14.35
2023-01-17T05:35:08.532Z,18.08
2023-01-17T05:37:37.081Z,19.20
2023-01-17T05:40:09.813Z,15.50
2023-01-17T05:42:38.475Z,19.50
2023-01-17T05:45:09.882Z,15.70
2023-01-17T05:47:40.098Z,16.55
2023-01-17T05:50:09.596Z,17.33
2023-01-17T05:52:37.889Z,16.50
2023-01-17T05:55:07.506Z,19.52
2023-01-17T05:57:36.442Z,16.52
2023-01-17T06:00:06.565Z,15.32
2023-01-17T06:02:34.958Z,13.38
2023-01-17T06:05:05.659Z,16.98
2023-01-17T06:07:34.849Z,15.25
2023-01-17T06:10:03.422Z,14.02
2023-01-17T06:12:32.283Z,15.43
2023-01-17T06:15:01.013Z,13.55
2023-01-17T06:17:29.456Z,18.55
2023-01-17T06:19:57.851Z,18.80
2023-01-17T06:22:28.148Z,12.80
2023-01-17T06:24:56.739Z,15.57
2023-01-17T06:27:25.079Z,13.93
2023-01-17T06:29:53.474Z,12.15
2023-01-17T06:32:22.391Z,14.30
2023-01-17T06:34:50.593Z,15.23
2023-01-17T06:37:19.185Z,13.65
2023-01-17T06:39:49.078Z,17.10
2023-01-17T06:42:17.633Z,16.23
2023-01-17T06:44:46.043Z,17.23
2023-01-17T06:47:14.655Z,18.10
2023-01-17T06:49:43.206Z,13.70
2023-01-17T06:52:11.723Z,18.33
2023-01-17T06:54:40.018Z,15.68
2023-01-17T06:57:10.041Z,17.20
2023-01-17T06:59:38.434Z,16.27
2023-01-17T07:02:07.100Z,18.65
2023-01-17T07:04:36.495Z,15.90
2023-01-17T07:07:05.086Z,16.33
2023-01-17T07:09:33.652Z,19.63
2023-01-17T07:12:02.236Z,16.50
2023-01-17T07:14:32.509Z,17.25
2023-01-17T07:17:00.993Z,24.25
2023-01-17T07:19:29.529Z,17.00
2023-01-17T07:21:58.257Z,14.95
2023-01-17T07:24:26.830Z,20.92
2023-01-17T07:26:55.498Z,18.55
2023-01-17T07:29:24.303Z,19.85
2023-01-17T07:31:54.225Z,19.52
2023-01-17T07:34:22.573Z,16.15
2023-01-17T07:36:51.250Z,19.05
2023-01-17T07:39:19.929Z,17.90
2023-01-17T07:41:50.594Z,17.88
2023-01-17T07:46:49.634Z,20.98
2023-01-17T07:49:20.345Z,30.02
2023-01-17T07:51:48.949Z,25.80
2023-01-17T07:54:17.734Z,22.70
2023-01-17T07:56:47.127Z,19.42
2023-01-17T07:59:15.739Z,17.23
2023-01-17T08:01:44.251Z,18.13
2023-01-17T08:04:14.196Z,24.42
2023-01-17T08:06:47.764Z,17.95
2023-01-17T08:09:16.340Z,20.70
2023-01-17T08:11:44.808Z,20.33
2023-01-17T08:14:13.306Z,25.77
2023-01-17T08:16:41.967Z,17.33
2023-01-17T08:19:10.661Z,20.77
2023-01-17T08:21:39.336Z,20.83
2023-01-17T08:24:14.962Z,19.88
2023-01-17T08:26:43.597Z,18.60
2023-01-17T08:29:12.153Z,19.95
2023-01-17T08:31:40.873Z,20.05
2023-01-17T08:34:09.495Z,24.90
2023-01-17T08:36:38.082Z,23.45
2023-01-17T08:39:06.689Z,22.85
2023-01-17T08:41:37.052Z,20.15
2023-01-17T08:44:07.438Z,17.95
2023-01-17T08:46:35.988Z,16.92
2023-01-17T08:49:04.870Z,17.63
2023-01-17T08:51:34.854Z,19.48
2023-01-17T08:54:03.722Z,18.55
2023-01-17T08:56:32.475Z,19.48
2023-01-17T08:59:03.039Z,19.75
2023-01-17T09:01:41.067Z,16.98
2023-01-17T09:04:09.833Z,13.27
2023-01-17T09:06:39.758Z,17.73
2023-01-17T09:09:11.013Z,17.08
2023-01-17T09:11:39.864Z,16.58
2023-01-17T09:14:12.771Z,14.35
2023-01-17T09:16:41.343Z,15.35
2023-01-17T09:19:11.203Z,17.80
2023-01-17T09:21:39.884Z,21.85
2023-01-17T09:24:08.627Z,20.92
2023-01-17T09:26:37.370Z,18.50
2023-01-17T09:29:06.082Z,16.42
2023-01-17T09:31:36.926Z,16.50
2023-01-17T09:34:05.605Z,12.85
2023-01-17T09:36:34.903Z,15.40
2023-01-17T09:39:05.633Z,13.93
2023-01-17T09:41:37.752Z,17.73
2023-01-17T09:44:19.441Z,21.67
2023-01-17T09:46:52.422Z,14.32
2023-01-17T09:49:34.766Z,14.73
2023-01-17T09:52:04.696Z,16.98
2023-01-17T09:54:37.388Z,15.23
2023-01-17T10:00:03.234Z,17.75
2023-01-17T10:03:16.027Z,13.38
2023-01-17T10:06:01.067Z,11.63
2023-01-17T10:08:47.580Z,14.13
2023-01-17T10:11:34.926Z,14.93
2023-01-17T10:14:22.723Z,10.27
2023-01-17T10:17:02.339Z,9.45
2023-01-17T10:20:02.226Z,10.50
2023-01-17T10:23:00.654Z,12.18
2023-01-17T10:25:46.385Z,11.70
2023-01-17T10:28:18.972Z,8.27
2023-01-17T10:30:52.440Z,7.95
2023-01-17T10:33:27.042Z,7.80
2023-01-17T10:36:00.693Z,8.88
2023-01-17T10:38:35.972Z,13.85
2023-01-17T10:41:10.843Z,8.27
2023-01-17T10:43:48.250Z,14.18
2023-01-17T10:46:22.407Z,8.23
2023-01-17T10:48:54.381Z,10.57
2023-01-17T10:52:09.616Z,8.77
2023-01-17T10:55:17.155Z,12.43
2023-01-17T10:57:47.586Z,14.23
2023-01-17T11:00:44.095Z,11.07
2023-01-17T11:03:14.748Z,11.18
2023-01-17T11:05:44.501Z,13.57
2023-01-17T11:08:16.187Z,11.98
2023-01-17T11:10:47.123Z,12.75
2023-01-17T11:13:30.580Z,9.50
2023-01-17T11:16:02.391Z,11.57
2023-01-17T11:18:36.475Z,9.50
2023-01-17T11:21:12.151Z,11.07
2023-01-17T11:23:45.572Z,10.70
2023-01-17T11:26:25.791Z,9.45
2023-01-17T11:28:54.496Z,8.35
2023-01-17T11:31:28.904Z,7.97
2023-01-17T11:34:20.511Z,12.43
2023-01-17T11:36:49.220Z,11.18
2023-01-17T11:39:27.796Z,11.88
2023-01-17T11:41:56.516Z,14.13
2023-01-17T11:44:28.062Z,11.90
2023-01-17T11:47:17.129Z,11.55
2023-01-17T11:49:48.416Z,8.73
2023-01-17T11:52:25.452Z,11.38
2023-01-17T11:54:57.202Z,11.00
2023-01-17T11:57:29.106Z,10.30
2023-01-17T12:00:12.143Z,13.70
2023-01-17T12:03:15.194Z,13.95
2023-01-17T12:06:05.118Z,10.30
2023-01-17T12:08:57.239Z,9.25
2023-01-17T12:11:39.917Z,11.75
2023-01-17T12:14:20.081Z,34.25
2023-01-17T12:17:09.370Z,14.63
2023-01-17T12:20:01.177Z,11.60
2023-01-17T12:22:51.847Z,10.65
2023-01-17T12:25:29.992Z,12.25
2023-01-17T12:28:15.846Z,11.65
2023-01-17T12:31:10.089Z,9.07
2023-01-17T12:33:48.631Z,6.68
2023-01-17T12:36:39.038Z,8.63
2023-01-17T12:39:12.135Z,8.50
2023-01-17T12:41:56.521Z,8.43
2023-01-17T12:44:48.064Z,9.70
2023-01-17T12:47:19.679Z,6.18
2023-01-17T12:49:55.519Z,7.57
2023-01-17T12:52:38.709Z,7.30
2023-01-17T12:55:17.586Z,11.77
2023-01-17T12:57:52.956Z,13.50
2023-01-17T13:00:29.784Z,10.93
2023-01-17T13:03:09.259Z,6.28
2023-01-17T13:05:41.928Z,8.40
2023-01-17T13:10:56.139Z,4.03
2023-01-17T13:13:27.689Z,5.20
2023-01-17T13:16:04.472Z,3.05
2023-01-17T13:18:33.445Z,4.88
2023-01-17T13:21:19.170Z,5.90
2023-01-17T13:24:27.117Z,9.73
2023-01-17T13:27:24.715Z,5.30
2023-01-17T13:30:10.224Z,9.15
2023-01-17T13:33:29.528Z,8.52
2023-01-17T13:36:21.843Z,10.10
2023-01-17T13:39:14.955Z,12.80
2023-01-17T13:44:24.248Z,11.60
2023-01-17T13:47:07.356Z,11.00
2023-01-17T13:49:48.476Z,8.18
2023-01-17T13:52:35.736Z,8.10
2023-01-17T13:55:08.863Z,10.18
2023-01-17T13:57:46.742Z,8.02
2023-01-17T14:01:00.167Z,9.77
2023-01-17T14:04:11.830Z,7.32
2023-01-17T14:06:44.824Z,8.77
2023-01-17T14:09:23.494Z,6.93
2023-01-17T14:11:58.264Z,9.07
2023-01-17T14:14:51.331Z,7.63
2023-01-17T14:20:49.977Z,18.73
2023-01-17T14:23:59.403Z,17.00
2023-01-17T14:26:43.959Z,13.77
2023-01-17T14:29:49.802Z,10.57
2023-01-17T14:32:21.700Z,18.02
2023-01-17T14:34:53.392Z,11.48
2023-01-17T14:37:47.965Z,14.50
2023-01-17T14:40:22.179Z,13.10
2023-01-17T14:43:00.812Z,11.18
2023-01-17T14:45:32.360Z,16.23
2023-01-17T14:48:04.141Z,15.25
2023-01-17T14:50:39.260Z,13.40
2023-01-17T14:53:20.336Z,12.30
2023-01-17T14:56:01.099Z,13.27
2023-01-17T14:58:32.174Z,12.20
2023-01-17T15:01:04.010Z,15.82
2023-01-17T15:03:37.015Z,17.35
2023-01-17T15:06:14.226Z,11.38
2023-01-17T15:08:43.273Z,18.45
2023-01-17T15:11:21.302Z,9.82
2023-01-17T15:13:54.826Z,9.52
2023-01-17T15:16:27.636Z,12.68
2023-01-17T15:18:57.946Z,13.48
2023-01-17T15:21:30.079Z,11.05
2023-01-17T15:24:00.868Z,7.80
2023-01-17T15:26:36.391Z,13.32
2023-01-17T15:29:07.941Z,11.85
2023-01-17T15:31:44.195Z,10.05
2023-01-17T15:34:26.884Z,9.52
2023-01-17T15:36:58.245Z,13.38
2023-01-17T15:39:30.280Z,11.32
2023-01-17T15:42:04.439Z,14.88
2023-01-17T15:44:47.954Z,7.72
2023-01-17T15:47:31.111Z,12.80
2023-01-17T15:50:01.072Z,10.60
2023-01-17T15:52:30.899Z,10.90
2023-01-17T15:55:12.437Z,12.48
2023-01-17T15:57:47.928Z,11.55
2023-01-17T16:00:24.010Z,15.63
2023-01-17T16:02:57.660Z,11.95
2023-01-17T16:05:43.482Z,11.55
2023-01-17T16:08:39.730Z,15.63
2023-01-17T16:11:12.446Z,15.07
2023-01-17T16:13:47.423Z,12.85
2023-01-17T16:16:25.928Z,14.45
2023-01-17T16:19:01.934Z,22.98
2023-01-17T16:21:33.240Z,12.55
2023-01-17T16:24:02.850Z,13.30
2023-01-17T16:26:31.360Z,14.32
2023-01-17T16:29:01.588Z,16.83
2023-01-17T16:31:30.067Z,15.73
2023-01-17T16:33:58.388Z,16.65
2023-01-17T16:36:26.859Z,21.95
2023-01-17T16:38:55.409Z,19.73
2023-01-17T16:41:23.886Z,15.07
2023-01-17T16:44:03.516Z,24.40
2023-01-17T16:46:35.106Z,20.52
2023-01-17T16:49:03.755Z,16.98
2023-01-17T16:51:34.671Z,14.38
2023-01-17T16:54:03.581Z,14.40
2023-01-17T16:56:32.142Z,13.10
2023-01-17T16:59:02.069Z,12.18
2023-01-17T17:01:30.892Z,13.38
2023-01-17T17:03:59.408Z,14.43
2023-01-17T17:06:28.334Z,21.65
2023-01-17T17:08:57.096Z,14.38
2023-01-17T17:11:25.709Z,18.02
2023-01-17T17:13:54.715Z,20.88
2023-01-17T17:16:29.844Z,17.33
2023-01-17T17:19:00.333Z,18.92
2023-01-17T17:21:30.305Z,20.08
2023-01-17T17:24:00.540Z,16.38
2023-01-17T17:26:32.051Z,20.27
2023-01-17T17:29:00.682Z,25.45
2023-01-17T17:31:30.868Z,18.38
2023-01-17T17:34:00.881Z,26.92
2023-01-17T17:36:30.170Z,27.38
2023-01-17T17:39:00.023Z,23.25
2023-01-17T17:41:31.533Z,21.33
2023-01-17T17:44:02.672Z,25.92
2023-01-17T17:46:33.980Z,25.80
2023-01-17T17:49:02.984Z,21.50
2023-01-17T17:51:34.404Z,25.77
2023-01-17T17:54:06.012Z,29.08
2023-01-17T17:56:35.624Z,26.88
2023-01-17T17:59:06.497Z,27.98
2023-01-17T18:01:38.467Z,26.58
2023-01-17T18:04:08.407Z,23.73
2023-01-17T18:06:38.597Z,20.77
2023-01-17T18:09:08.599Z,26.77
2023-01-17T18:11:38.617Z,33.92
2023-01-17T18:14:11.776Z,31.42
2023-01-17T18:16:44.998Z,30.35
2023-01-17T18:19:17.037Z,29.48
2023-01-17T18:21:45.637Z,41.80
2023-01-17T18:24:17.052Z,27.35
2023-01-17T18:26:47.157Z,31.13
2023-01-17T18:29:18.418Z,31.30
2023-01-17T18:31:50.423Z,35.58
2023-01-17T18:34:23.742Z,29.13
2023-01-17T18:36:53.120Z,29.38
2023-01-17T18:39:25.154Z,24.80
2023-01-17T18:41:55.134Z,28.80
2023-01-17T18:44:24.125Z,27.83
2023-01-17T18:46:55.249Z,28.38
2023-01-17T18:49:24.206Z,31.20
2023-01-17T18:51:52.753Z,28.65
2023-01-17T18:54:22.165Z,40.17
2023-01-17T18:56:51.312Z,31.42
2023-01-17T18:59:21.304Z,32.03
2023-01-17T19:01:49.936Z,34.10
2023-01-17T19:04:20.635Z,34.72
2023-01-17T19:06:50.160Z,38.30
2023-01-17T19:09:19.399Z,36.80
2023-01-17T19:11:48.023Z,32.53
2023-01-17T19:14:16.794Z,33.70
2023-01-17T19:16:49.011Z,33.83
2023-01-17T19:19:22.069Z,34.03
2023-01-17T19:21:52.802Z,33.67
2023-01-17T19:24:21.101Z,34.08
2023-01-17T19:26:54.942Z,35.20
2023-01-17T19:29:23.461Z,33.10
2023-01-17T19:31:51.801Z,40.22
2023-01-17T19:34:21.883Z,39.95
2023-01-17T19:36:50.060Z,39.08
2023-01-17T19:39:18.757Z,41.47
2023-01-17T19:41:47.904Z,35.90
2023-01-17T19:44:16.838Z,39.53
2023-01-17T19:46:46.065Z,40.40
2023-01-17T19:49:23.990Z,55.95
2023-01-17T19:51:54.318Z,49.60
2023-01-17T19:54:23.422Z,49.35
2023-01-17T19:56:52.354Z,40.88
2023-01-17T19:59:21.011Z,45.75
2023-01-17T20:01:50.168Z,40.47
2023-01-17T20:04:19.302Z,41.25
2023-01-17T20:06:48.279Z,41.08
2023-01-17T20:09:18.232Z,42.13
2023-01-17T20:11:46.903Z,36.22
2023-01-17T20:14:16.737Z,37.85
2023-01-17T20:16:47.547Z,30.88
2023-01-17T20:19:16.906Z,28.73
2023-01-17T20:21:45.853Z,33.40
2023-01-17T20:24:16.308Z,37.45
2023-01-17T20:26:46.425Z,33.95
2023-01-17T20:29:17.398Z,36.58
2023-01-17T20:31:46.894Z,43.03
2023-01-17T20:34:19.499Z,34.80
2023-01-17T20:36:48.372Z,40.67
2023-01-17T20:39:17.502Z,36.47
2023-01-17T20:41:49.272Z,36.17
2023-01-17T20:44:18.626Z,35.67
2023-01-17T20:46:48.110Z,35.58
2023-01-17T20:49:19.961Z,39.85
2023-01-17T20:51:49.150Z,36.15
2023-01-17T20:54:20.106Z,39.08
2023-01-17T20:56:51.434Z,37.35
2023-01-17T20:59:22.831Z,37.95
2023-01-17T21:01:51.897Z,41.58
2023-01-17T21:04:25.624Z,39.60
2023-01-17T21:06:55.520Z,33.53
2023-01-17T21:09:24.444Z,38.55
2023-01-17T21:12:00.800Z,36.90
2023-01-17T21:14:29.524Z,41.53
2023-01-17T21:16:57.821Z,42.28
2023-01-17T21:19:28.044Z,40.75
2023-01-17T21:21:57.254Z,42.90
2023-01-17T21:24:28.930Z,35.80
2023-01-17T21:26:58.973Z,35.20
2023-01-17T21:29:29.111Z,32.67
2023-01-17T21:31:58.118Z,29.75
2023-01-17T21:34:27.608Z,32.65
2023-01-17T21:36:56.176Z,34.47
2023-01-17T21:39:25.175Z,29.73
2023-01-17T21:41:53.967Z,26.20
2023-01-17T21:44:24.358Z,31.25
2023-01-17T21:46:56.001Z,29.92
2023-01-17T21:52:26.221Z,32.78
2023-01-17T21:55:12.095Z,33.95
2023-01-17T21:57:58.338Z,28.40
2023-01-17T22:00:31.145Z,32.38
2023-01-17T22:05:28.266Z,33.47
2023-01-17T22:08:23.530Z,32.05
2023-01-17T22:10:52.096Z,29.48
2023-01-17T22:13:21.365Z,30.92
2023-01-17T22:16:00.139Z,33.95
2023-01-17T22:18:29.470Z,27.20
2023-01-17T22:20:58.817Z,34.47
2023-01-17T22:23:31.034Z,33.55
2023-01-17T22:26:04.397Z,35.40
2023-01-17T22:28:34.131Z,40.83
2023-01-17T22:31:10.589Z,32.03
2023-01-17T22:33:40.894Z,28.48
2023-01-17T22:36:13.618Z,33.65
2023-01-17T22:38:43.352Z,30.48
2023-01-17T22:41:16.049Z,32.20
2023-01-17T22:43:47.394Z,29.23
2023-01-17T22:46:21.355Z,30.20
2023-01-17T22:48:50.586Z,27.25
2023-01-17T22:51:21.228Z,30.48
2023-01-17T22:53:52.320Z,25.75
2023-01-17T22:56:23.587Z,28.85
2023-01-17T22:58:52.369Z,27.23
2023-01-17T23:01:24.706Z,32.15
2023-01-17T23:03:55.713Z,25.23
2023-01-17T23:06:27.443Z,25.42
2023-01-17T23:08:58.187Z,30.23
2023-01-17T23:11:46.180Z,24.63
2023-01-17T23:14:18.441Z,22.67
2023-01-17T23:17:09.060Z,27.45
2023-01-17T23:19:40.596Z,24.85
2023-01-17T23:22:19.248Z,25.45
2023-01-17T23:24:54.272Z,22.48
2023-01-17T23:27:42.812Z,27.42
2023-01-17T23:30:14.676Z,26.67
2023-01-17T23:32:49.492Z,24.27
2023-01-17T23:35:20.407Z,24.13
2023-01-17T23:38:06.579Z,24.95
2023-01-17T23:40:37.832Z,25.63
2023-01-17T23:43:24.449Z,28.42
2023-01-17T23:45:54.646Z,30.13
2023-01-17T23:48:27.650Z,25.90
2023-01-17T23:51:00.771Z,26.67
2023-01-17T23:53:30.012Z,27.10
2023-01-17T23:56:00.573Z,22.08
2023-01-17T23:58:30.064Z,29.10
